Dadeville, Missouri
Current Conditions -  °F | °C
As of 4:13 PM on Monday 22 Dec 2014 (Local Time) from KSGF Reporting Station
Light Rain Light Rain  
Wind Chill: 45°   Ceiling: 500
Heat Index: 49°   Visibility: 4mi
Dew Point: 47°   Wind: 10mph
Humidity: 93%   Direction: 190°S
Pressure: 29.49"   Gusts: NA
Location:  37.48°N, 93.67°W
Report Text: KSGF 222213Z 19009KT 4SM -RA BR BKN005 OVC012 09/08 A2949 RMK AO2 CIG 005V009 P0000 T00940083
Loading
Personal Weather Stations






























Interactive Weather Map New forecast layout! Learn more

10-Day Weather Forecast

Advertisements
Track Severe Weather on mobile